DIRECCIÓN GENERAL DE AERONÁUTICA CIVIL
DIRECCIÓN METEOROLÓGICA DE CHILE
INFORMACIÓN METAR Y TAF

FIR PUERTO MONTT

Estación: SCQP
METAR SCQP 010600Z 34003KT 330V030 0600 R01/0800 FZFG VV001 M02/M02 Q1019=

TAF SCQP 010413Z 0106/0206 VRB01KT 0500 FG OVC002 TNM02/0110Z TX12/0119Z TEMPO 0108/0110 2000 BR BKN002 BECMG 0113/0114 5000 BR NSC BECMG 0114/0116 17007KT CAVOK=

Estación: SCVD
METAR SCVD 010600Z AUTO 00000KT 1000 R35/0900V1500U FZFG VV002 M03/M03 Q1021=

TAF SCVD 301052Z 3012/3024 VRB02KT 1200 BCFG BKN002 TN00/3012Z TX11/3019Z BECMG 3015/3017 18006KT 9999 NSW SCT010 BECMG 3018/3020 CAVOK=

Estación: SCJO
METAR SCJO 010300Z 00000KT CAVOK 02/01 Q1022=

TAF SCJO 301053Z 3012/3024 VRB02KT 1000 BCFG SCT002 TNM01/3012Z TX10/3019Z BECMG 3015/3017 18007KT 9999 NSW SCT010 BECMG 3017/3019 CAVOK=

Estación: SCTE
METAR SCTE 010600Z 00000KT 1500 0700N BCFG NSC M01/M02 Q1022 NOSIG=

TAF SCTE 010415Z 0106/0206 VRB01KT 0700 FG BKN002 TNM02/0110Z TX10/0119Z TEMPO 0108/0110 2000 BR SCT001 BECMG 0113/0114 5000 BR NSC BECMG 0114/0116 16008KT CAVOK=

Estación: SCPQ
METAR SCPQ 010600Z AUTO 22004KT 9999 SCT010 01/01 Q1022=

TAF SCPQ 301056Z 3012/3024 19005KT CAVOK TN01/3012Z TX10/3019Z=

Estación: SCON
METAR SCON 302100Z 20005KT 9999 FEW040 SCT200 09/05 Q1024=

TAF SCON NIL=

Estación: SCTN
METAR SCTN 010600Z AUTO VRB02KT CAVOK M00/M01 Q1022=

TAF SCTN 301055Z 3012/3024 VRB02KT 9999 FEW040 TN03/3012Z TX11/3019Z BECMG 3015/3017 18007KT CAVOK=

Estación: SCFT
METAR SCFT 010600Z AUTO 00000KT 1600 FG VV000 M04/M05 Q1025=

TAF SCFT NIL=

Estación: SCAP
METAR SCAP 010600Z AUTO VRB05KT //// // NSC M03/M04 Q1031=

TAF SCAP NIL=

Estación: SCMK
METAR SCMK 302200Z 00000KT 9999 FEW023 06/04 Q1024=

TAF SCMK 301057Z 3012/3024 23005KT 9999 SCT040 TN04/3012Z TX09/3019Z BECMG 3016/3018 18007KT CAVOK=

Estación: SCAS
METAR SCAS 302100Z 24006KT 9999 FEW030 BKN040 08/04 Q1025=

TAF SCAS NIL=

Estación: SCCY
METAR SCCY 010600Z AUTO 01005KT CAVOK 01/M01 Q1023=

TAF SCCY 301058Z 3012/3024 01007KT 9999 SCT045 TN03/3012Z TX08/3019Z BECMG 3016/3018 29007KT=

Estación: SCBA
METAR SCBA 010600Z 27003KT 230V300 9999 FEW040 M03/M05 Q1022=

TAF SCBA 010415Z 0106/0206 VRB02KT 9999 SCT040 TNM04/0110Z TX08/0119Z BECMG 0112/0114 CAVOK TEMPO 0118/0122 31012KT=

Estación: SCCC
METAR SCCC 302100Z 28012KT CAVOK 08/M07 Q1021=

TAF SCCC NIL=

Estación: SCHR
METAR SCHR 301500Z 00000KT CAVOK 03/M04 Q1022=

TAF SCHR 301110Z 3012/0100 28012KT 9999 SCT020 TN01/3012Z TX06/3018Z PROB40 TEMPO 3012/3014 1200 BR BKN003 BECMG 3014/3016 SCT040=


Volver